createdAt,value
2018-08-21T00:00:49.987Z,21.01
2018-08-21T00:03:22.072Z,21.07
2018-08-21T00:05:54.428Z,20.99
2018-08-21T00:08:26.447Z,20.96
2018-08-21T00:11:09.890Z,20.99
2018-08-21T00:13:42.002Z,20.94
2018-08-21T00:16:14.514Z,20.93
2018-08-21T00:18:46.520Z,20.85
2018-08-21T00:21:18.578Z,20.76
2018-08-21T00:24:02.319Z,20.66
2018-08-21T00:26:34.344Z,20.57
2018-08-21T00:29:06.975Z,20.50
2018-08-21T00:31:42.877Z,20.45
2018-08-21T00:34:20.308Z,20.41
2018-08-21T00:36:58.768Z,20.27
2018-08-21T00:39:31.518Z,20.33
2018-08-21T00:42:05.048Z,20.23
2018-08-21T00:44:37.739Z,20.24
2018-08-21T00:47:09.756Z,20.10
2018-08-21T00:49:41.751Z,20.00
2018-08-21T00:52:13.752Z,19.90
2018-08-21T00:54:45.755Z,19.93
2018-08-21T00:57:17.784Z,19.87
2018-08-21T00:59:49.790Z,19.91
2018-08-21T01:02:21.867Z,19.79
2018-08-21T01:04:53.896Z,19.72
2018-08-21T01:07:25.894Z,19.79
2018-08-21T01:09:57.912Z,19.69
2018-08-21T01:12:29.932Z,19.67
2018-08-21T01:15:01.928Z,19.64
2018-08-21T01:17:33.952Z,19.53
2018-08-21T01:20:07.719Z,19.45
2018-08-21T01:22:40.148Z,19.39
2018-08-21T01:25:14.121Z,19.39
2018-08-21T01:27:46.150Z,19.32
2018-08-21T01:30:18.163Z,19.28
2018-08-21T01:32:50.272Z,19.15
2018-08-21T01:35:22.313Z,19.00
2018-08-21T01:37:54.327Z,18.88
2018-08-21T01:40:26.344Z,18.91
2018-08-21T01:42:58.395Z,18.89
2018-08-21T01:45:30.429Z,18.84
2018-08-21T01:48:02.472Z,18.72
2018-08-21T01:50:34.570Z,18.69
2018-08-21T01:53:06.549Z,18.75
2018-08-21T01:55:38.537Z,18.75
2018-08-21T01:58:10.547Z,18.86
2018-08-21T02:00:42.559Z,18.93
2018-08-21T02:03:14.578Z,18.90
2018-08-21T02:05:46.602Z,18.81
2018-08-21T02:08:18.826Z,18.82
2018-08-21T02:10:51.438Z,18.77
2018-08-21T02:13:23.434Z,18.66
2018-08-21T02:15:55.487Z,18.58
2018-08-21T02:18:27.474Z,18.55
2018-08-21T02:20:59.495Z,18.54
2018-08-21T02:23:31.528Z,18.42
2018-08-21T02:26:03.550Z,18.35
2018-08-21T02:28:35.598Z,18.34
2018-08-21T02:31:07.608Z,18.44
2018-08-21T02:33:39.635Z,18.45
2018-08-21T02:36:11.620Z,18.50
2018-08-21T02:38:43.648Z,18.48
2018-08-21T02:41:15.655Z,18.41
2018-08-21T02:43:47.640Z,18.30
2018-08-21T02:46:22.070Z,18.20
2018-08-21T02:48:56.402Z,18.17
2018-08-21T02:51:31.830Z,18.29
2018-08-21T02:54:04.072Z,18.43
2018-08-21T02:56:37.478Z,18.39
2018-08-21T02:59:09.447Z,18.42
2018-08-21T03:01:47.070Z,18.44
2018-08-21T03:04:21.458Z,18.42
2018-08-21T03:06:53.471Z,18.39
2018-08-21T03:09:25.500Z,18.42
2018-08-21T03:11:57.482Z,18.41
2018-08-21T03:14:29.467Z,18.39
2018-08-21T03:17:01.504Z,18.31
2018-08-21T03:19:33.528Z,18.28
2018-08-21T03:22:05.589Z,18.24
2018-08-21T03:24:37.590Z,18.27
2018-08-21T03:27:09.619Z,18.14
2018-08-21T03:29:41.626Z,18.12
2018-08-21T03:32:13.599Z,18.16
2018-08-21T03:34:45.599Z,18.24
2018-08-21T03:37:17.584Z,18.25
2018-08-21T03:39:51.101Z,18.24
2018-08-21T03:42:23.186Z,18.17
2018-08-21T03:45:01.278Z,18.23
2018-08-21T03:47:41.107Z,18.12
2018-08-21T03:50:16.226Z,17.95
2018-08-21T03:52:48.386Z,17.94
2018-08-21T03:55:20.463Z,18.01
2018-08-21T03:57:52.474Z,17.91
2018-08-21T04:00:25.342Z,17.89
2018-08-21T04:02:57.380Z,17.90
2018-08-21T04:05:29.379Z,18.18
2018-08-21T04:08:01.376Z,18.22
2018-08-21T04:10:33.407Z,18.28
2018-08-21T04:13:05.414Z,18.29
2018-08-21T04:15:37.422Z,18.20
2018-08-21T04:18:09.486Z,18.35
2018-08-21T04:20:41.491Z,18.37
2018-08-21T04:23:14.176Z,18.35
2018-08-21T04:25:46.170Z,18.44
2018-08-21T04:28:18.172Z,18.39
2018-08-21T04:30:50.135Z,18.49
2018-08-21T04:33:22.234Z,18.41
2018-08-21T04:35:54.226Z,18.39
2018-08-21T04:38:26.236Z,18.38
2018-08-21T04:40:58.244Z,18.48
2018-08-21T04:43:30.323Z,18.56
2018-08-21T04:46:02.696Z,18.55
2018-08-21T04:48:38.961Z,18.67
2018-08-21T04:51:10.974Z,18.76
2018-08-21T04:53:42.920Z,18.84
2018-08-21T04:56:14.923Z,18.85
2018-08-21T04:58:50.806Z,18.98
2018-08-21T05:01:22.717Z,18.97
2018-08-21T05:03:54.701Z,18.92
2018-08-21T05:06:26.670Z,18.91
2018-08-21T05:08:58.706Z,18.98
2018-08-21T05:11:30.654Z,18.97
2018-08-21T05:14:02.664Z,19.05
2018-08-21T05:16:34.700Z,19.03
2018-08-21T05:19:06.730Z,19.06
2018-08-21T05:21:38.671Z,19.16
2018-08-21T05:24:10.676Z,19.17
2018-08-21T05:26:42.674Z,19.33
2018-08-21T05:29:14.655Z,19.65
2018-08-21T05:31:46.651Z,20.30
2018-08-21T05:34:20.659Z,21.68
2018-08-21T05:36:52.671Z,22.93
2018-08-21T05:39:24.684Z,22.67
2018-08-21T05:41:56.667Z,22.31
2018-08-21T05:44:39.114Z,22.11
2018-08-21T05:47:11.136Z,21.93
2018-08-21T05:49:43.124Z,21.88
2018-08-21T05:52:15.213Z,21.97
2018-08-21T05:54:47.211Z,22.38
2018-08-21T05:57:19.767Z,23.05
2018-08-21T05:59:51.814Z,22.88
2018-08-21T06:02:23.854Z,24.10
2018-08-21T06:04:55.882Z,25.54
2018-08-21T06:07:27.884Z,25.56
2018-08-21T06:09:59.951Z,25.60
2018-08-21T06:12:46.884Z,27.02
2018-08-21T06:15:18.983Z,26.70
2018-08-21T06:18:06.689Z,26.46
2018-08-21T06:20:42.087Z,26.87
2018-08-21T06:23:15.442Z,27.13
2018-08-21T06:25:47.471Z,26.94
2018-08-21T06:28:22.068Z,26.76
2018-08-21T06:30:54.081Z,26.94
2018-08-21T06:33:26.111Z,27.42
2018-08-21T06:36:01.114Z,28.13
2018-08-21T06:38:33.488Z,28.81
2018-08-21T06:41:05.589Z,28.06
2018-08-21T06:43:47.824Z,27.09
2018-08-21T06:46:19.842Z,26.75
2018-08-21T06:48:51.807Z,26.02
2018-08-21T06:51:23.819Z,25.85
2018-08-21T06:54:01.538Z,25.24
2018-08-21T06:56:33.616Z,25.10
2018-08-21T06:59:15.632Z,24.90
2018-08-21T07:01:53.521Z,24.54
2018-08-21T07:04:25.539Z,24.35
2018-08-21T07:06:57.538Z,24.66
2018-08-21T07:09:29.548Z,24.56
2018-08-21T07:12:02.680Z,24.95
2018-08-21T07:14:35.620Z,24.89
2018-08-21T07:17:07.484Z,25.17
2018-08-21T07:19:39.489Z,25.73
2018-08-21T07:22:11.579Z,26.71
2018-08-21T07:24:54.152Z,26.81
2018-08-21T07:27:27.564Z,28.06
2018-08-21T07:30:00.842Z,29.46
2018-08-21T07:32:34.187Z,30.31
2018-08-21T07:35:08.150Z,30.69
2018-08-21T07:37:40.740Z,31.10
2018-08-21T07:40:13.202Z,31.25
2018-08-21T07:42:45.219Z,32.84
2018-08-21T07:45:17.199Z,33.09
2018-08-21T07:47:49.213Z,33.00
2018-08-21T07:50:21.245Z,31.08
2018-08-21T07:52:57.077Z,30.61
2018-08-21T07:55:29.059Z,30.71
2018-08-21T07:58:01.066Z,31.09
2018-08-21T08:00:33.075Z,32.01
2018-08-21T08:03:05.073Z,32.75
2018-08-21T08:05:37.083Z,30.82
2018-08-21T08:08:09.080Z,31.38
2018-08-21T08:10:41.110Z,31.38
2018-08-21T08:13:18.765Z,31.59
2018-08-21T08:15:50.775Z,30.60
2018-08-21T08:18:22.774Z,30.37
2018-08-21T08:20:54.785Z,30.85
2018-08-21T08:23:26.801Z,31.28
2018-08-21T08:26:03.712Z,30.96
2018-08-21T08:28:35.706Z,30.86
2018-08-21T08:31:07.707Z,31.77
2018-08-21T08:33:39.715Z,32.04
2018-08-21T08:36:11.703Z,32.63
2018-08-21T08:38:43.675Z,32.66
2018-08-21T08:41:21.369Z,33.05
2018-08-21T08:43:53.375Z,32.24
2018-08-21T08:46:25.358Z,32.38
2018-08-21T08:49:04.387Z,32.59
2018-08-21T08:51:37.337Z,33.87
2018-08-21T08:54:09.316Z,33.74
2018-08-21T08:56:46.276Z,33.00
2018-08-21T08:59:18.314Z,32.85
2018-08-21T09:01:50.237Z,32.57
2018-08-21T09:04:22.267Z,33.23
2018-08-21T09:06:54.304Z,33.51
2018-08-21T09:09:26.300Z,33.39
2018-08-21T09:11:59.797Z,34.04
2018-08-21T09:14:37.724Z,33.26
2018-08-21T09:17:20.458Z,32.33
2018-08-21T09:20:00.587Z,32.87
2018-08-21T09:22:33.765Z,32.80
2018-08-21T09:25:05.821Z,33.67
2018-08-21T09:27:42.468Z,33.65
2018-08-21T09:30:22.001Z,34.02
2018-08-21T09:32:55.773Z,33.53
2018-08-21T09:35:27.795Z,33.93
2018-08-21T09:37:59.873Z,33.71
2018-08-21T09:40:31.847Z,32.90
2018-08-21T09:43:03.885Z,33.12
2018-08-21T09:45:35.929Z,32.54
2018-08-21T09:48:08.345Z,31.80
2018-08-21T09:50:40.439Z,31.51
2018-08-21T09:53:13.208Z,31.31
2018-08-21T09:55:45.266Z,33.28
2018-08-21T09:58:17.552Z,33.39
2018-08-21T10:00:55.382Z,33.81
2018-08-21T10:03:33.700Z,33.03
2018-08-21T10:06:06.834Z,33.63
2018-08-21T10:08:47.932Z,33.72
2018-08-21T10:11:20.587Z,33.94
2018-08-21T10:13:52.986Z,33.50
2018-08-21T10:16:25.003Z,33.28
2018-08-21T10:18:57.043Z,33.80
2018-08-21T10:21:29.140Z,33.90
2018-08-21T10:24:01.267Z,34.23
2018-08-21T10:26:34.610Z,34.44
2018-08-21T10:29:06.673Z,34.26
2018-08-21T10:31:40.072Z,34.45
2018-08-21T10:34:12.068Z,35.02
2018-08-21T10:36:44.057Z,35.45
2018-08-21T10:39:16.041Z,35.60
2018-08-21T10:41:48.027Z,35.61
2018-08-21T10:44:20.031Z,34.81
2018-08-21T10:46:51.998Z,35.61
2018-08-21T10:49:23.988Z,35.11
2018-08-21T10:51:55.951Z,34.76
2018-08-21T10:54:27.972Z,34.07
2018-08-21T10:56:59.939Z,35.68
2018-08-21T10:59:31.951Z,35.86
2018-08-21T11:02:04.028Z,36.02
2018-08-21T11:04:36.051Z,35.15
2018-08-21T11:07:12.611Z,35.14
2018-08-21T11:09:49.283Z,35.96
2018-08-21T11:12:22.437Z,36.26
2018-08-21T11:14:54.562Z,35.57
2018-08-21T11:17:26.668Z,35.31
2018-08-21T11:19:58.713Z,35.60
2018-08-21T11:22:30.753Z,34.73
2018-08-21T11:25:02.850Z,33.74
2018-08-21T11:27:34.935Z,33.20
2018-08-21T11:30:06.998Z,33.54
2018-08-21T11:32:39.081Z,33.25
2018-08-21T11:35:11.123Z,33.23
2018-08-21T11:37:43.909Z,33.43
2018-08-21T11:40:15.922Z,32.99
2018-08-21T11:42:48.963Z,32.93
2018-08-21T11:45:22.245Z,34.72
2018-08-21T11:47:54.415Z,35.91
2018-08-21T11:50:26.488Z,36.30
2018-08-21T11:52:58.460Z,36.85
2018-08-21T11:55:30.456Z,36.73
2018-08-21T11:58:02.462Z,36.04
2018-08-21T12:00:34.487Z,35.63
2018-08-21T12:03:06.499Z,35.83
2018-08-21T12:05:38.498Z,35.74
2018-08-21T12:08:10.543Z,35.67
2018-08-21T12:10:42.537Z,35.72
2018-08-21T12:13:14.508Z,35.49
2018-08-21T12:15:46.558Z,34.89
2018-08-21T12:18:18.534Z,35.40
2018-08-21T12:20:50.535Z,35.97
2018-08-21T12:23:22.508Z,34.60
2018-08-21T12:25:54.579Z,34.37
2018-08-21T12:28:26.634Z,34.69
2018-08-21T12:30:58.640Z,34.64
2018-08-21T12:33:30.781Z,34.65
2018-08-21T12:36:02.839Z,34.91
2018-08-21T12:38:34.851Z,34.43
2018-08-21T12:41:06.862Z,36.00
2018-08-21T12:43:38.871Z,35.29
2018-08-21T12:46:10.895Z,36.89
2018-08-21T12:48:42.926Z,36.13
2018-08-21T12:51:14.926Z,36.69
2018-08-21T12:53:46.924Z,37.53
2018-08-21T12:56:18.942Z,36.97
2018-08-21T12:58:50.954Z,38.64
2018-08-21T13:01:22.970Z,38.58
2018-08-21T13:03:54.993Z,38.39
2018-08-21T13:06:26.994Z,37.83
2018-08-21T13:08:58.998Z,38.41
2018-08-21T13:11:31.023Z,39.31
2018-08-21T13:14:03.027Z,37.10
2018-08-21T13:16:35.028Z,35.32
2018-08-21T13:19:07.064Z,33.60
2018-08-21T13:21:39.075Z,32.12
2018-08-21T13:24:11.163Z,33.07
2018-08-21T13:26:43.176Z,33.18
2018-08-21T13:29:15.164Z,34.27
2018-08-21T13:31:47.177Z,35.94
2018-08-21T13:34:20.190Z,37.05
2018-08-21T13:36:52.230Z,36.52
2018-08-21T13:39:24.230Z,37.96
2018-08-21T13:41:56.227Z,37.48
2018-08-21T13:44:28.263Z,37.47
2018-08-21T13:47:00.297Z,37.83
2018-08-21T13:49:32.284Z,38.30
2018-08-21T13:52:04.364Z,38.92
2018-08-21T13:54:36.480Z,38.21
2018-08-21T13:57:08.542Z,39.00
2018-08-21T13:59:40.537Z,39.92
2018-08-21T14:02:12.571Z,38.55
2018-08-21T14:04:44.576Z,39.81
2018-08-21T14:07:16.584Z,41.18
2018-08-21T14:09:48.592Z,41.08
2018-08-21T14:12:20.594Z,39.14
2018-08-21T14:14:52.609Z,39.77
2018-08-21T14:17:24.688Z,40.37
2018-08-21T14:19:56.673Z,36.85
2018-08-21T14:22:28.675Z,37.01
2018-08-21T14:25:00.693Z,38.39
2018-08-21T14:27:32.699Z,38.63
2018-08-21T14:30:04.929Z,39.54
2018-08-21T14:32:36.947Z,40.35
2018-08-21T14:35:08.995Z,39.60
2018-08-21T14:37:41.023Z,38.68
2018-08-21T14:40:13.043Z,39.01
2018-08-21T14:42:46.110Z,39.25
2018-08-21T14:45:18.133Z,39.24
2018-08-21T14:47:50.162Z,38.59
2018-08-21T14:50:22.255Z,39.83
2018-08-21T14:52:54.300Z,40.72
2018-08-21T14:55:26.268Z,41.13
2018-08-21T14:57:58.318Z,37.75
2018-08-21T15:00:30.326Z,38.63
2018-08-21T15:03:02.371Z,37.72
2018-08-21T15:05:34.372Z,38.29
2018-08-21T15:08:06.376Z,38.07
2018-08-21T15:10:38.415Z,38.49
2018-08-21T15:13:10.442Z,39.07
2018-08-21T15:15:42.468Z,39.06
2018-08-21T15:18:14.495Z,38.52
2018-08-21T15:20:46.487Z,37.82
2018-08-21T15:23:18.500Z,36.59
2018-08-21T15:25:50.470Z,37.95
2018-08-21T15:28:22.480Z,38.17
2018-08-21T15:30:54.494Z,38.63
2018-08-21T15:33:26.556Z,36.70
2018-08-21T15:35:58.485Z,38.39
2018-08-21T15:38:30.470Z,38.60
2018-08-21T15:41:02.439Z,38.04
2018-08-21T15:43:34.437Z,36.73
2018-08-21T15:46:06.429Z,36.02
2018-08-21T15:48:38.441Z,34.15
2018-08-21T15:51:10.424Z,34.44
2018-08-21T15:53:42.446Z,34.78
2018-08-21T15:56:14.494Z,35.37
2018-08-21T15:58:46.559Z,35.89
2018-08-21T16:01:18.648Z,35.36
2018-08-21T16:03:50.680Z,35.40
2018-08-21T16:06:22.652Z,33.62
2018-08-21T16:08:54.714Z,33.22
2018-08-21T16:11:26.821Z,32.74
2018-08-21T16:13:58.707Z,32.43
2018-08-21T16:16:30.749Z,32.15
2018-08-21T16:19:02.876Z,32.19
2018-08-21T16:21:34.790Z,32.09
2018-08-21T16:24:06.798Z,32.10
2018-08-21T16:26:38.892Z,31.77
2018-08-21T16:29:10.991Z,31.85
2018-08-21T16:31:42.984Z,31.71
2018-08-21T16:34:14.950Z,31.36
2018-08-21T16:36:46.955Z,30.99
2018-08-21T16:39:19.015Z,31.00
2018-08-21T16:41:50.943Z,30.70
2018-08-21T16:44:23.023Z,30.43
2018-08-21T16:46:55.071Z,30.39
2018-08-21T16:49:27.046Z,30.33
2018-08-21T16:51:59.107Z,30.08
2018-08-21T16:54:31.056Z,29.79
2018-08-21T16:57:03.043Z,29.72
2018-08-21T16:59:35.117Z,29.68
2018-08-21T17:02:07.080Z,29.65
2018-08-21T17:04:39.043Z,29.65
2018-08-21T17:07:11.119Z,29.61
2018-08-21T17:09:43.160Z,29.50
2018-08-21T17:12:15.236Z,29.34
2018-08-21T17:14:47.311Z,29.10
2018-08-21T17:17:19.370Z,29.11
2018-08-21T17:19:51.429Z,28.90
2018-08-21T17:22:23.499Z,28.87
2018-08-21T17:24:55.683Z,28.76
2018-08-21T17:27:27.715Z,28.63
2018-08-21T17:29:59.787Z,28.66
2018-08-21T17:32:31.838Z,28.55
2018-08-21T17:35:04.072Z,28.37
2018-08-21T17:37:36.122Z,28.16
2018-08-21T17:40:08.162Z,28.10
2018-08-21T17:42:40.247Z,27.90
2018-08-21T17:45:12.314Z,27.83
2018-08-21T17:47:44.361Z,27.69
2018-08-21T17:50:16.432Z,27.70
2018-08-21T17:52:48.476Z,27.60
2018-08-21T17:55:20.566Z,27.54
2018-08-21T17:57:52.628Z,27.44
2018-08-21T18:00:24.683Z,27.34
2018-08-21T18:02:56.689Z,27.25
2018-08-21T18:05:28.730Z,27.16
2018-08-21T18:08:00.707Z,27.20
2018-08-21T18:10:32.714Z,27.13
2018-08-21T18:13:04.855Z,27.01
2018-08-21T18:15:36.886Z,26.89
2018-08-21T18:18:08.949Z,26.72
2018-08-21T18:20:41.008Z,26.54
2018-08-21T18:23:13.090Z,26.29
2018-08-21T18:25:45.118Z,26.21
2018-08-21T18:28:18.142Z,26.27
2018-08-21T18:30:50.168Z,26.29
2018-08-21T18:33:22.252Z,26.18
2018-08-21T18:35:54.275Z,26.06
2018-08-21T18:38:26.278Z,26.07
2018-08-21T18:40:58.468Z,25.79
2018-08-21T18:43:30.475Z,25.62
2018-08-21T18:46:02.696Z,25.51
2018-08-21T18:48:34.997Z,25.44
2018-08-21T18:51:07.829Z,25.29
2018-08-21T18:53:39.850Z,25.13
2018-08-21T18:56:11.888Z,25.11
2018-08-21T18:58:43.992Z,24.94
2018-08-21T19:01:16.866Z,24.86
2018-08-21T19:03:49.062Z,24.79
2018-08-21T19:06:21.370Z,24.68
2018-08-21T19:08:53.343Z,24.70
2018-08-21T19:11:25.404Z,24.54
2018-08-21T19:13:57.394Z,24.59
2018-08-21T19:16:29.448Z,24.57
2018-08-21T19:19:01.467Z,24.56
2018-08-21T19:21:33.535Z,24.58
2018-08-21T19:24:05.763Z,24.62
2018-08-21T19:26:37.771Z,24.46
2018-08-21T19:29:10.251Z,24.52
2018-08-21T19:31:42.879Z,24.51
2018-08-21T19:34:15.030Z,24.62
2018-08-21T19:36:47.166Z,24.42
2018-08-21T19:39:19.207Z,24.29
2018-08-21T19:41:52.201Z,24.05
2018-08-21T19:44:24.669Z,23.98
2018-08-21T19:46:56.734Z,24.07
2018-08-21T19:49:29.404Z,24.01
2018-08-21T19:52:02.151Z,23.92
2018-08-21T19:54:34.152Z,23.94
2018-08-21T19:57:06.608Z,23.83
2018-08-21T19:59:41.578Z,23.80
2018-08-21T20:02:13.646Z,23.84
2018-08-21T20:04:46.301Z,23.73
2018-08-21T20:07:18.505Z,23.75
2018-08-21T20:09:50.747Z,23.64
2018-08-21T20:12:22.875Z,23.64
2018-08-21T20:14:54.964Z,23.51
2018-08-21T20:17:27.834Z,23.60
2018-08-21T20:20:00.162Z,23.60
2018-08-21T20:22:32.144Z,23.64
2018-08-21T20:25:04.186Z,23.69
2018-08-21T20:27:36.356Z,23.76
2018-08-21T20:30:08.451Z,23.76
2018-08-21T20:32:40.458Z,23.90
2018-08-21T20:35:12.481Z,23.96
2018-08-21T20:37:44.692Z,23.78
2018-08-21T20:40:17.125Z,23.70
2018-08-21T20:42:49.234Z,23.59
2018-08-21T20:45:21.200Z,23.49
2018-08-21T20:47:53.218Z,23.49
2018-08-21T20:50:25.334Z,23.26
2018-08-21T20:52:57.422Z,23.28
2018-08-21T20:55:29.430Z,23.22
2018-08-21T20:58:01.433Z,23.19
2018-08-21T21:00:33.474Z,23.23
2018-08-21T21:03:05.461Z,23.20
2018-08-21T21:05:37.471Z,23.06
2018-08-21T21:08:09.491Z,22.97
2018-08-21T21:10:41.483Z,22.98
2018-08-21T21:13:25.092Z,22.89
2018-08-21T21:16:08.799Z,22.81
2018-08-21T21:18:52.224Z,22.82
2018-08-21T21:21:35.736Z,22.70
2018-08-21T21:24:25.744Z,22.59
2018-08-21T21:26:57.860Z,22.46
2018-08-21T21:29:30.024Z,22.38
2018-08-21T21:32:02.075Z,22.24
2018-08-21T21:34:34.132Z,21.96
2018-08-21T21:37:06.198Z,21.98
2018-08-21T21:39:38.250Z,22.12
2018-08-21T21:42:10.201Z,22.04
2018-08-21T21:44:42.218Z,21.95
2018-08-21T21:47:14.223Z,21.98
2018-08-21T21:49:46.235Z,22.01
2018-08-21T21:52:18.226Z,21.94
2018-08-21T21:54:50.223Z,21.71
2018-08-21T21:57:22.286Z,21.65
2018-08-21T21:59:54.295Z,21.74
2018-08-21T22:02:26.276Z,22.04
2018-08-21T22:04:58.279Z,22.02
2018-08-21T22:07:30.401Z,21.89
2018-08-21T22:10:02.417Z,22.00
2018-08-21T22:12:34.416Z,21.75
2018-08-21T22:15:06.482Z,21.88
2018-08-21T22:17:38.714Z,21.78
2018-08-21T22:20:10.686Z,21.92
2018-08-21T22:22:42.726Z,21.82
2018-08-21T22:25:14.728Z,21.76
2018-08-21T22:27:46.751Z,21.72
2018-08-21T22:30:19.380Z,21.83
2018-08-21T22:32:51.346Z,21.68
2018-08-21T22:35:23.346Z,21.65
2018-08-21T22:37:55.323Z,21.71
2018-08-21T22:40:34.035Z,21.69
2018-08-21T22:43:06.115Z,21.73
2018-08-21T22:45:38.151Z,21.66
2018-08-21T22:48:10.119Z,21.56
2018-08-21T22:50:42.098Z,21.53
2018-08-21T22:53:14.106Z,21.51
2018-08-21T22:55:46.067Z,21.45
2018-08-21T22:58:18.030Z,21.52
2018-08-21T23:00:50.055Z,21.50
2018-08-21T23:03:22.007Z,21.51
2018-08-21T23:05:53.994Z,21.55
2018-08-21T23:08:25.987Z,21.46
2018-08-21T23:10:57.955Z,21.37
2018-08-21T23:13:29.967Z,21.25
2018-08-21T23:16:02.267Z,21.30
2018-08-21T23:18:34.257Z,21.23
2018-08-21T23:21:06.251Z,21.09
2018-08-21T23:23:38.246Z,21.11
2018-08-21T23:26:10.323Z,21.05
2018-08-21T23:28:42.407Z,20.94
2018-08-21T23:31:14.391Z,21.06
2018-08-21T23:33:46.384Z,21.03
2018-08-21T23:36:18.374Z,20.97
2018-08-21T23:38:50.375Z,20.92
2018-08-21T23:41:22.385Z,20.92
2018-08-21T23:43:54.383Z,20.87
2018-08-21T23:46:26.391Z,20.81
2018-08-21T23:48:58.450Z,20.82
2018-08-21T23:51:30.558Z,20.73
2018-08-21T23:54:02.573Z,20.71
2018-08-21T23:56:34.584Z,20.67
2018-08-21T23:59:06.594Z,20.55
